sensor_id;sensor_type;location;lat;lon;timestamp;P1;durP1;ratioP1;P2;durP2;ratioP2
25467;SDS011;13384;24.794;110.498;2022-09-28T00:05:50;15.88;;;12.77;;
25467;SDS011;13384;24.794;110.498;2022-09-28T00:08:21;16.33;;;13.25;;
25467;SDS011;13384;24.794;110.498;2022-09-28T00:11:55;18.77;;;13.57;;
25467;SDS011;13384;24.794;110.498;2022-09-28T00:20:43;16.83;;;13.88;;
25467;SDS011;13384;24.794;110.498;2022-09-28T00:27:14;17.17;;;13.88;;
25467;SDS011;13384;24.794;110.498;2022-09-28T00:36:43;16.40;;;13.10;;
25467;SDS011;13384;24.794;110.498;2022-09-28T00:42:40;18.77;;;14.25;;
25467;SDS011;13384;24.794;110.498;2022-09-28T00:45:34;17.45;;;14.38;;
25467;SDS011;13384;24.794;110.498;2022-09-28T00:48:28;16.48;;;13.45;;
25467;SDS011;13384;24.794;110.498;2022-09-28T00:51:24;18.38;;;13.70;;
25467;SDS011;13384;24.794;110.498;2022-09-28T00:57:21;17.13;;;13.77;;
25467;SDS011;13384;24.794;110.498;2022-09-28T01:00:06;17.08;;;14.32;;
25467;SDS011;13384;24.794;110.498;2022-09-28T01:06:14;18.63;;;14.77;;
25467;SDS011;13384;24.794;110.498;2022-09-28T01:09:02;28.15;;;19.02;;
25467;SDS011;13384;24.794;110.498;2022-09-28T01:11:40;20.27;;;15.70;;
25467;SDS011;13384;24.794;110.498;2022-09-28T01:28:31;21.23;;;16.70;;
25467;SDS011;13384;24.794;110.498;2022-09-28T01:34:40;19.58;;;15.10;;
25467;SDS011;13384;24.794;110.498;2022-09-28T01:43:50;19.38;;;15.57;;
25467;SDS011;13384;24.794;110.498;2022-09-28T01:46:41;19.63;;;15.18;;
25467;SDS011;13384;24.794;110.498;2022-09-28T01:55:17;16.90;;;14.97;;
25467;SDS011;13384;24.794;110.498;2022-09-28T01:58:04;20.30;;;15.13;;
25467;SDS011;13384;24.794;110.498;2022-09-28T02:04:49;21.67;;;16.73;;
25467;SDS011;13384;24.794;110.498;2022-09-28T02:09:53;19.98;;;14.88;;
25467;SDS011;13384;24.794;110.498;2022-09-28T02:16:04;23.65;;;16.88;;
25467;SDS011;13384;24.794;110.498;2022-09-28T02:18:55;21.35;;;16.75;;
25467;SDS011;13384;24.794;110.498;2022-09-28T02:28:17;19.05;;;15.95;;
25467;SDS011;13384;24.794;110.498;2022-09-28T02:37:52;19.48;;;15.93;;
25467;SDS011;13384;24.794;110.498;2022-09-28T02:43:25;19.20;;;15.40;;
25467;SDS011;13384;24.794;110.498;2022-09-28T03:00:44;24.27;;;16.67;;
25467;SDS011;13384;24.794;110.498;2022-09-28T03:06:55;18.00;;;15.00;;
25467;SDS011;13384;24.794;110.498;2022-09-28T03:18:41;21.00;;;15.30;;
25467;SDS011;13384;24.794;110.498;2022-09-28T03:21:11;19.13;;;15.05;;
25467;SDS011;13384;24.794;110.498;2022-09-28T03:27:23;19.33;;;15.40;;
25467;SDS011;13384;24.794;110.498;2022-09-28T03:32:44;18.80;;;15.13;;
25467;SDS011;13384;24.794;110.498;2022-09-28T03:35:13;18.10;;;14.88;;
25467;SDS011;13384;24.794;110.498;2022-09-28T03:38:08;17.75;;;14.95;;
25467;SDS011;13384;24.794;110.498;2022-09-28T03:47:28;17.73;;;14.57;;
25467;SDS011;13384;24.794;110.498;2022-09-28T03:57:25;19.20;;;15.27;;
25467;SDS011;13384;24.794;110.498;2022-09-28T04:00:22;17.95;;;14.82;;
25467;SDS011;13384;24.794;110.498;2022-09-28T04:03:14;18.60;;;14.32;;
25467;SDS011;13384;24.794;110.498;2022-09-28T04:05:49;18.23;;;14.77;;
25467;SDS011;13384;24.794;110.498;2022-09-28T04:22:39;17.67;;;14.88;;
25467;SDS011;13384;24.794;110.498;2022-09-28T04:25:10;19.60;;;15.52;;
25467;SDS011;13384;24.794;110.498;2022-09-28T04:28:22;17.77;;;14.45;;
25467;SDS011;13384;24.794;110.498;2022-09-28T04:31:45;17.60;;;14.50;;
25467;SDS011;13384;24.794;110.498;2022-09-28T04:35:31;20.13;;;15.73;;
25467;SDS011;13384;24.794;110.498;2022-09-28T04:38:20;22.15;;;15.20;;
25467;SDS011;13384;24.794;110.498;2022-09-28T04:41:12;16.20;;;14.05;;
25467;SDS011;13384;24.794;110.498;2022-09-28T04:49:41;18.23;;;15.73;;
25467;SDS011;13384;24.794;110.498;2022-09-28T04:56:06;18.08;;;14.60;;
25467;SDS011;13384;24.794;110.498;2022-09-28T05:08:48;18.25;;;15.57;;
25467;SDS011;13384;24.794;110.498;2022-09-28T05:11:49;18.58;;;15.68;;
25467;SDS011;13384;24.794;110.498;2022-09-28T05:24:54;19.85;;;15.45;;
25467;SDS011;13384;24.794;110.498;2022-09-28T05:27:56;17.30;;;14.82;;
25467;SDS011;13384;24.794;110.498;2022-09-28T05:30:38;20.00;;;15.00;;
25467;SDS011;13384;24.794;110.498;2022-09-28T05:40:53;19.65;;;15.82;;
25467;SDS011;13384;24.794;110.498;2022-09-28T05:49:35;24.13;;;16.58;;
25467;SDS011;13384;24.794;110.498;2022-09-28T05:52:26;21.40;;;16.92;;
25467;SDS011;13384;24.794;110.498;2022-09-28T06:08:22;19.35;;;15.60;;
25467;SDS011;13384;24.794;110.498;2022-09-28T06:11:29;17.52;;;14.93;;
25467;SDS011;13384;24.794;110.498;2022-09-28T06:14:08;19.48;;;15.93;;
25467;SDS011;13384;24.794;110.498;2022-09-28T06:16:42;19.02;;;14.85;;
25467;SDS011;13384;24.794;110.498;2022-09-28T06:19:13;18.08;;;15.15;;
25467;SDS011;13384;24.794;110.498;2022-09-28T06:22:20;18.83;;;15.88;;
25467;SDS011;13384;24.794;110.498;2022-09-28T06:25:00;20.40;;;16.05;;
25467;SDS011;13384;24.794;110.498;2022-09-28T06:30:30;16.60;;;14.32;;
25467;SDS011;13384;24.794;110.498;2022-09-28T06:33:03;20.55;;;16.27;;
25467;SDS011;13384;24.794;110.498;2022-09-28T06:35:52;17.80;;;15.30;;
25467;SDS011;13384;24.794;110.498;2022-09-28T06:38:23;20.58;;;16.15;;
25467;SDS011;13384;24.794;110.498;2022-09-28T06:40:55;19.20;;;15.93;;
25467;SDS011;13384;24.794;110.498;2022-09-28T06:43:27;20.90;;;15.40;;
25467;SDS011;13384;24.794;110.498;2022-09-28T06:46:27;19.90;;;15.63;;
25467;SDS011;13384;24.794;110.498;2022-09-28T06:49:17;19.55;;;15.95;;
25467;SDS011;13384;24.794;110.498;2022-09-28T06:52:07;17.73;;;14.82;;
25467;SDS011;13384;24.794;110.498;2022-09-28T06:55:04;21.60;;;15.35;;
25467;SDS011;13384;24.794;110.498;2022-09-28T06:57:59;18.90;;;15.30;;
25467;SDS011;13384;24.794;110.498;2022-09-28T07:00:33;19.33;;;15.95;;
25467;SDS011;13384;24.794;110.498;2022-09-28T07:03:06;18.92;;;15.80;;
25467;SDS011;13384;24.794;110.498;2022-09-28T07:06:15;18.33;;;15.25;;
25467;SDS011;13384;24.794;110.498;2022-09-28T07:09:13;18.80;;;15.18;;
25467;SDS011;13384;24.794;110.498;2022-09-28T07:12:12;20.13;;;15.70;;
25467;SDS011;13384;24.794;110.498;2022-09-28T07:14:50;17.42;;;15.00;;
25467;SDS011;13384;24.794;110.498;2022-09-28T07:17:27;20.08;;;15.65;;
25467;SDS011;13384;24.794;110.498;2022-09-28T07:20:16;19.95;;;14.98;;
25467;SDS011;13384;24.794;110.498;2022-09-28T07:22:52;19.47;;;15.17;;
25467;SDS011;13384;24.794;110.498;2022-09-28T07:25:37;20.45;;;16.27;;
25467;SDS011;13384;24.794;110.498;2022-09-28T07:28:42;20.10;;;15.63;;
25467;SDS011;13384;24.794;110.498;2022-09-28T07:31:36;19.08;;;15.90;;
25467;SDS011;13384;24.794;110.498;2022-09-28T07:34:36;17.42;;;15.32;;
25467;SDS011;13384;24.794;110.498;2022-09-28T07:37:26;19.33;;;15.38;;
25467;SDS011;13384;24.794;110.498;2022-09-28T07:40:17;19.15;;;15.18;;
25467;SDS011;13384;24.794;110.498;2022-09-28T07:43:22;20.35;;;16.08;;
25467;SDS011;13384;24.794;110.498;2022-09-28T07:46:11;19.13;;;16.35;;
25467;SDS011;13384;24.794;110.498;2022-09-28T07:49:12;20.27;;;15.90;;
25467;SDS011;13384;24.794;110.498;2022-09-28T07:52:04;20.42;;;15.55;;
25467;SDS011;13384;24.794;110.498;2022-09-28T07:55:10;18.45;;;15.10;;
25467;SDS011;13384;24.794;110.498;2022-09-28T07:58:01;21.60;;;16.20;;
25467;SDS011;13384;24.794;110.498;2022-09-28T08:00:55;20.55;;;16.05;;
25467;SDS011;13384;24.794;110.498;2022-09-28T08:03:45;17.48;;;15.55;;
25467;SDS011;13384;24.794;110.498;2022-09-28T08:06:17;21.10;;;15.52;;
25467;SDS011;13384;24.794;110.498;2022-09-28T08:08:48;18.58;;;15.73;;
25467;SDS011;13384;24.794;110.498;2022-09-28T08:12:00;19.92;;;16.23;;
25467;SDS011;13384;24.794;110.498;2022-09-28T08:14:46;17.35;;;15.23;;
25467;SDS011;13384;24.794;110.498;2022-09-28T08:17:37;19.67;;;15.63;;
25467;SDS011;13384;24.794;110.498;2022-09-28T08:20:08;18.05;;;15.80;;
25467;SDS011;13384;24.794;110.498;2022-09-28T08:23:13;20.30;;;15.98;;
25467;SDS011;13384;24.794;110.498;2022-09-28T08:25:48;17.67;;;15.30;;
25467;SDS011;13384;24.794;110.498;2022-09-28T08:28:23;18.45;;;15.82;;
25467;SDS011;13384;24.794;110.498;2022-09-28T08:30:58;20.75;;;15.10;;
25467;SDS011;13384;24.794;110.498;2022-09-28T08:34:15;18.83;;;15.70;;
25467;SDS011;13384;24.794;110.498;2022-09-28T08:37:12;18.05;;;15.23;;
25467;SDS011;13384;24.794;110.498;2022-09-28T08:40:01;21.13;;;15.93;;
25467;SDS011;13384;24.794;110.498;2022-09-28T08:42:42;20.30;;;15.65;;
25467;SDS011;13384;24.794;110.498;2022-09-28T08:45:32;17.70;;;15.75;;
25467;SDS011;13384;24.794;110.498;2022-09-28T08:51:17;17.33;;;15.25;;
25467;SDS011;13384;24.794;110.498;2022-09-28T08:57:29;19.08;;;15.80;;
25467;SDS011;13384;24.794;110.498;2022-09-28T09:00:14;19.10;;;15.90;;
25467;SDS011;13384;24.794;110.498;2022-09-28T09:02:51;20.50;;;15.43;;
25467;SDS011;13384;24.794;110.498;2022-09-28T09:05:30;18.37;;;15.90;;
25467;SDS011;13384;24.794;110.498;2022-09-28T09:09:05;19.17;;;15.32;;
25467;SDS011;13384;24.794;110.498;2022-09-28T09:11:56;19.17;;;16.15;;
25467;SDS011;13384;24.794;110.498;2022-09-28T09:14:43;17.77;;;15.30;;
25467;SDS011;13384;24.794;110.498;2022-09-28T09:21:14;17.48;;;15.65;;
25467;SDS011;13384;24.794;110.498;2022-09-28T09:23:55;22.70;;;15.73;;
25467;SDS011;13384;24.794;110.498;2022-09-28T09:26:34;19.63;;;15.68;;
25467;SDS011;13384;24.794;110.498;2022-09-28T09:29:23;18.33;;;15.30;;
25467;SDS011;13384;24.794;110.498;2022-09-28T09:57:14;20.40;;;15.20;;
25467;SDS011;13384;24.794;110.498;2022-09-28T10:00:00;21.08;;;16.65;;
25467;SDS011;13384;24.794;110.498;2022-09-28T10:02:49;21.48;;;18.27;;
25467;SDS011;13384;24.794;110.498;2022-09-28T10:05:33;24.85;;;18.52;;
25467;SDS011;13384;24.794;110.498;2022-09-28T10:10:49;23.85;;;20.75;;
25467;SDS011;13384;24.794;110.498;2022-09-28T10:13:39;26.58;;;20.92;;
25467;SDS011;13384;24.794;110.498;2022-09-28T10:16:30;25.77;;;20.13;;
25467;SDS011;13384;24.794;110.498;2022-09-28T10:19:06;24.08;;;19.92;;
25467;SDS011;13384;24.794;110.498;2022-09-28T10:22:27;24.55;;;20.73;;
25467;SDS011;13384;24.794;110.498;2022-09-28T10:25:08;24.77;;;20.23;;
25467;SDS011;13384;24.794;110.498;2022-09-28T10:27:44;23.88;;;18.77;;
25467;SDS011;13384;24.794;110.498;2022-09-28T10:30:23;23.92;;;19.27;;
25467;SDS011;13384;24.794;110.498;2022-09-28T10:32:55;23.17;;;19.08;;
25467;SDS011;13384;24.794;110.498;2022-09-28T10:35:39;23.40;;;19.35;;
25467;SDS011;13384;24.794;110.498;2022-09-28T10:38:16;22.55;;;18.52;;
25467;SDS011;13384;24.794;110.498;2022-09-28T10:41:10;21.52;;;19.05;;
25467;SDS011;13384;24.794;110.498;2022-09-28T10:44:02;21.58;;;18.20;;
25467;SDS011;13384;24.794;110.498;2022-09-28T10:46:58;23.27;;;19.08;;
25467;SDS011;13384;24.794;110.498;2022-09-28T10:49:53;29.05;;;21.80;;
25467;SDS011;13384;24.794;110.498;2022-09-28T10:55:21;37.97;;;25.17;;
25467;SDS011;13384;24.794;110.498;2022-09-28T10:57:57;33.50;;;24.95;;
25467;SDS011;13384;24.794;110.498;2022-09-28T11:00:40;39.60;;;26.70;;
25467;SDS011;13384;24.794;110.498;2022-09-28T11:03:24;37.60;;;26.42;;
25467;SDS011;13384;24.794;110.498;2022-09-28T11:06:13;39.80;;;26.52;;
25467;SDS011;13384;24.794;110.498;2022-09-28T11:08:44;47.00;;;29.67;;
25467;SDS011;13384;24.794;110.498;2022-09-28T11:11:41;52.22;;;33.00;;
25467;SDS011;13384;24.794;110.498;2022-09-28T11:17:29;59.03;;;38.33;;
25467;SDS011;13384;24.794;110.498;2022-09-28T11:23:00;50.00;;;33.20;;
25467;SDS011;13384;24.794;110.498;2022-09-28T11:26:25;44.50;;;31.07;;
25467;SDS011;13384;24.794;110.498;2022-09-28T11:28:50;51.40;;;31.55;;
25467;SDS011;13384;24.794;110.498;2022-09-28T11:31:36;47.85;;;29.67;;
25467;SDS011;13384;24.794;110.498;2022-09-28T11:34:18;45.28;;;29.95;;
25467;SDS011;13384;24.794;110.498;2022-09-28T11:37:13;46.72;;;30.38;;
25467;SDS011;13384;24.794;110.498;2022-09-28T11:40:22;49.83;;;31.38;;
25467;SDS011;13384;24.794;110.498;2022-09-28T11:46:51;48.80;;;30.58;;
25467;SDS011;13384;24.794;110.498;2022-09-28T11:55:21;46.50;;;29.77;;
25467;SDS011;13384;24.794;110.498;2022-09-28T11:58:26;44.97;;;30.42;;
25467;SDS011;13384;24.794;110.498;2022-09-28T12:01:06;45.60;;;29.80;;
25467;SDS011;13384;24.794;110.498;2022-09-28T12:04:38;44.78;;;29.92;;
25467;SDS011;13384;24.794;110.498;2022-09-28T12:08:07;44.28;;;28.25;;
25467;SDS011;13384;24.794;110.498;2022-09-28T12:11:28;42.92;;;29.60;;
25467;SDS011;13384;24.794;110.498;2022-09-28T12:14:09;45.47;;;28.50;;
25467;SDS011;13384;24.794;110.498;2022-09-28T12:19:58;40.70;;;27.25;;
25467;SDS011;13384;24.794;110.498;2022-09-28T12:22:34;43.58;;;29.48;;
25467;SDS011;13384;24.794;110.498;2022-09-28T12:26:02;43.05;;;28.30;;
25467;SDS011;13384;24.794;110.498;2022-09-28T12:28:46;38.22;;;27.23;;
25467;SDS011;13384;24.794;110.498;2022-09-28T12:31:22;41.45;;;27.42;;
25467;SDS011;13384;24.794;110.498;2022-09-28T12:34:04;38.28;;;26.88;;
25467;SDS011;13384;24.794;110.498;2022-09-28T12:36:59;37.53;;;27.02;;
25467;SDS011;13384;24.794;110.498;2022-09-28T12:39:50;43.00;;;27.83;;
25467;SDS011;13384;24.794;110.498;2022-09-28T12:43:01;41.28;;;28.30;;
25467;SDS011;13384;24.794;110.498;2022-09-28T12:46:08;41.22;;;26.52;;
25467;SDS011;13384;24.794;110.498;2022-09-28T12:56:10;39.63;;;26.38;;
25467;SDS011;13384;24.794;110.498;2022-09-28T13:11:32;40.38;;;28.13;;
25467;SDS011;13384;24.794;110.498;2022-09-28T13:26:12;39.47;;;26.70;;
25467;SDS011;13384;24.794;110.498;2022-09-28T13:28:50;38.80;;;26.85;;
25467;SDS011;13384;24.794;110.498;2022-09-28T13:31:25;40.00;;;27.70;;
25467;SDS011;13384;24.794;110.498;2022-09-28T13:34:18;39.92;;;26.58;;
25467;SDS011;13384;24.794;110.498;2022-09-28T13:39:47;41.85;;;28.02;;
25467;SDS011;13384;24.794;110.498;2022-09-28T13:45:51;37.80;;;26.38;;
25467;SDS011;13384;24.794;110.498;2022-09-28T13:48:58;36.60;;;26.08;;
25467;SDS011;13384;24.794;110.498;2022-09-28T14:03:51;39.60;;;27.20;;
25467;SDS011;13384;24.794;110.498;2022-09-28T14:07:07;37.58;;;25.95;;
25467;SDS011;13384;24.794;110.498;2022-09-28T14:10:20;36.67;;;25.52;;
25467;SDS011;13384;24.794;110.498;2022-09-28T14:12:55;37.50;;;26.45;;
25467;SDS011;13384;24.794;110.498;2022-09-28T14:24:34;39.83;;;25.45;;
25467;SDS011;13384;24.794;110.498;2022-09-28T14:33:29;36.13;;;25.52;;
25467;SDS011;13384;24.794;110.498;2022-09-28T14:36:04;39.80;;;26.20;;
25467;SDS011;13384;24.794;110.498;2022-09-28T14:38:47;35.35;;;26.25;;
25467;SDS011;13384;24.794;110.498;2022-09-28T14:41:39;36.45;;;25.70;;
25467;SDS011;13384;24.794;110.498;2022-09-28T14:44:13;34.60;;;25.63;;
25467;SDS011;13384;24.794;110.498;2022-09-28T14:46:45;36.42;;;25.63;;
25467;SDS011;13384;24.794;110.498;2022-09-28T14:54:25;32.47;;;24.05;;
25467;SDS011;13384;24.794;110.498;2022-09-28T14:57:33;31.85;;;24.27;;
25467;SDS011;13384;24.794;110.498;2022-09-28T15:00:19;34.03;;;25.17;;
25467;SDS011;13384;24.794;110.498;2022-09-28T15:02:53;35.75;;;24.70;;
25467;SDS011;13384;24.794;110.498;2022-09-28T15:05:45;32.97;;;24.00;;
25467;SDS011;13384;24.794;110.498;2022-09-28T15:08:20;30.92;;;23.08;;
25467;SDS011;13384;24.794;110.498;2022-09-28T15:10:52;33.80;;;24.42;;
25467;SDS011;13384;24.794;110.498;2022-09-28T15:13:24;37.15;;;24.85;;
25467;SDS011;13384;24.794;110.498;2022-09-28T15:16:21;36.38;;;24.85;;
25467;SDS011;13384;24.794;110.498;2022-09-28T15:22:03;35.67;;;25.00;;
25467;SDS011;13384;24.794;110.498;2022-09-28T15:24:58;33.20;;;23.73;;
25467;SDS011;13384;24.794;110.498;2022-09-28T15:27:37;36.05;;;23.52;;
25467;SDS011;13384;24.794;110.498;2022-09-28T15:30:16;30.90;;;23.70;;
25467;SDS011;13384;24.794;110.498;2022-09-28T15:32:48;31.02;;;24.42;;
25467;SDS011;13384;24.794;110.498;2022-09-28T15:35:26;34.47;;;24.70;;
25467;SDS011;13384;24.794;110.498;2022-09-28T15:38:17;34.45;;;24.17;;
25467;SDS011;13384;24.794;110.498;2022-09-28T15:40:48;32.85;;;24.40;;
25467;SDS011;13384;24.794;110.498;2022-09-28T15:43:24;32.70;;;23.67;;
25467;SDS011;13384;24.794;110.498;2022-09-28T15:46:12;32.20;;;24.08;;
25467;SDS011;13384;24.794;110.498;2022-09-28T15:51:20;32.97;;;24.55;;
25467;SDS011;13384;24.794;110.498;2022-09-28T15:56:26;32.67;;;23.20;;
25467;SDS011;13384;24.794;110.498;2022-09-28T15:59:08;30.00;;;23.17;;
25467;SDS011;13384;24.794;110.498;2022-09-28T16:02:01;33.58;;;24.23;;
25467;SDS011;13384;24.794;110.498;2022-09-28T16:04:50;32.85;;;24.13;;
25467;SDS011;13384;24.794;110.498;2022-09-28T16:08:19;31.45;;;23.55;;
25467;SDS011;13384;24.794;110.498;2022-09-28T16:11:18;30.58;;;23.52;;
25467;SDS011;13384;24.794;110.498;2022-09-28T16:13:54;32.88;;;24.20;;
25467;SDS011;13384;24.794;110.498;2022-09-28T16:16:47;31.75;;;23.30;;
25467;SDS011;13384;24.794;110.498;2022-09-28T16:19:24;30.70;;;23.33;;
25467;SDS011;13384;24.794;110.498;2022-09-28T16:22:01;28.30;;;22.80;;
25467;SDS011;13384;24.794;110.498;2022-09-28T16:24:42;31.00;;;23.50;;
25467;SDS011;13384;24.794;110.498;2022-09-28T16:27:40;32.20;;;23.65;;
25467;SDS011;13384;24.794;110.498;2022-09-28T16:34:44;31.83;;;22.67;;
25467;SDS011;13384;24.794;110.498;2022-09-28T16:37:29;29.65;;;22.67;;
25467;SDS011;13384;24.794;110.498;2022-09-28T16:40:02;31.80;;;22.50;;
25467;SDS011;13384;24.794;110.498;2022-09-28T16:42:50;26.52;;;21.65;;
25467;SDS011;13384;24.794;110.498;2022-09-28T16:45:41;28.05;;;22.55;;
25467;SDS011;13384;24.794;110.498;2022-09-28T16:48:29;32.40;;;22.70;;
25467;SDS011;13384;24.794;110.498;2022-09-28T16:51:21;29.00;;;21.42;;
25467;SDS011;13384;24.794;110.498;2022-09-28T16:53:52;29.88;;;22.13;;
25467;SDS011;13384;24.794;110.498;2022-09-28T16:57:04;30.27;;;22.58;;
25467;SDS011;13384;24.794;110.498;2022-09-28T16:59:54;26.85;;;21.88;;
25467;SDS011;13384;24.794;110.498;2022-09-28T17:02:26;28.55;;;21.83;;
25467;SDS011;13384;24.794;110.498;2022-09-28T17:05:16;29.63;;;22.80;;
25467;SDS011;13384;24.794;110.498;2022-09-28T17:08:00;30.30;;;22.85;;
25467;SDS011;13384;24.794;110.498;2022-09-28T17:10:55;29.77;;;21.90;;
25467;SDS011;13384;24.794;110.498;2022-09-28T17:14:09;28.92;;;21.98;;
25467;SDS011;13384;24.794;110.498;2022-09-28T17:16:58;28.73;;;21.55;;
25467;SDS011;13384;24.794;110.498;2022-09-28T17:19:38;24.63;;;20.13;;
25467;SDS011;13384;24.794;110.498;2022-09-28T17:22:09;28.00;;;21.48;;
25467;SDS011;13384;24.794;110.498;2022-09-28T17:24:42;30.17;;;22.23;;
25467;SDS011;13384;24.794;110.498;2022-09-28T17:27:15;29.15;;;21.40;;
25467;SDS011;13384;24.794;110.498;2022-09-28T17:29:49;27.25;;;20.45;;
25467;SDS011;13384;24.794;110.498;2022-09-28T17:32:20;28.45;;;20.95;;
25467;SDS011;13384;24.794;110.498;2022-09-28T17:34:51;29.63;;;21.70;;
25467;SDS011;13384;24.794;110.498;2022-09-28T17:37:42;28.40;;;21.50;;
25467;SDS011;13384;24.794;110.498;2022-09-28T17:40:20;27.65;;;21.17;;
25467;SDS011;13384;24.794;110.498;2022-09-28T17:42:54;28.23;;;21.30;;
25467;SDS011;13384;24.794;110.498;2022-09-28T17:45:26;27.73;;;21.60;;
25467;SDS011;13384;24.794;110.498;2022-09-28T17:47:59;24.58;;;20.45;;
25467;SDS011;13384;24.794;110.498;2022-09-28T17:50:32;28.45;;;20.92;;
25467;SDS011;13384;24.794;110.498;2022-09-28T17:53:03;26.75;;;21.13;;
25467;SDS011;13384;24.794;110.498;2022-09-28T17:55:35;26.95;;;21.05;;
25467;SDS011;13384;24.794;110.498;2022-09-28T17:58:14;25.60;;;21.08;;
25467;SDS011;13384;24.794;110.498;2022-09-28T18:03:34;26.52;;;21.23;;
25467;SDS011;13384;24.794;110.498;2022-09-28T18:06:07;26.35;;;19.35;;
25467;SDS011;13384;24.794;110.498;2022-09-28T18:08:42;25.90;;;20.38;;
25467;SDS011;13384;24.794;110.498;2022-09-28T18:11:14;27.23;;;20.52;;
25467;SDS011;13384;24.794;110.498;2022-09-28T18:16:18;28.60;;;20.70;;
25467;SDS011;13384;24.794;110.498;2022-09-28T18:18:51;25.65;;;19.30;;
25467;SDS011;13384;24.794;110.498;2022-09-28T18:21:22;29.98;;;20.92;;
25467;SDS011;13384;24.794;110.498;2022-09-28T18:23:53;28.27;;;20.25;;
25467;SDS011;13384;24.794;110.498;2022-09-28T18:26:25;25.92;;;20.23;;
25467;SDS011;13384;24.794;110.498;2022-09-28T18:29:16;25.58;;;19.98;;
25467;SDS011;13384;24.794;110.498;2022-09-28T18:31:49;26.92;;;19.58;;
25467;SDS011;13384;24.794;110.498;2022-09-28T18:34:20;24.25;;;18.80;;
25467;SDS011;13384;24.794;110.498;2022-09-28T18:36:50;25.77;;;20.38;;
25467;SDS011;13384;24.794;110.498;2022-09-28T18:39:21;26.42;;;20.30;;
25467;SDS011;13384;24.794;110.498;2022-09-28T18:41:52;24.58;;;19.25;;
25467;SDS011;13384;24.794;110.498;2022-09-28T18:44:23;26.23;;;19.85;;
25467;SDS011;13384;24.794;110.498;2022-09-28T18:46:54;24.90;;;19.63;;
25467;SDS011;13384;24.794;110.498;2022-09-28T18:49:25;26.50;;;20.00;;
25467;SDS011;13384;24.794;110.498;2022-09-28T18:51:58;26.15;;;19.55;;
25467;SDS011;13384;24.794;110.498;2022-09-28T18:54:29;23.70;;;19.10;;
25467;SDS011;13384;24.794;110.498;2022-09-28T18:57:01;25.30;;;19.70;;
25467;SDS011;13384;24.794;110.498;2022-09-28T18:59:33;25.33;;;18.92;;
25467;SDS011;13384;24.794;110.498;2022-09-28T19:02:04;27.08;;;20.73;;
25467;SDS011;13384;24.794;110.498;2022-09-28T19:04:49;27.05;;;20.17;;
25467;SDS011;13384;24.794;110.498;2022-09-28T19:07:21;26.02;;;19.90;;
25467;SDS011;13384;24.794;110.498;2022-09-28T19:09:52;26.70;;;20.23;;
25467;SDS011;13384;24.794;110.498;2022-09-28T19:12:23;26.75;;;20.15;;
25467;SDS011;13384;24.794;110.498;2022-09-28T19:14:54;26.88;;;21.10;;
25467;SDS011;13384;24.794;110.498;2022-09-28T19:17:25;25.35;;;19.83;;
25467;SDS011;13384;24.794;110.498;2022-09-28T19:19:56;21.98;;;18.67;;
25467;SDS011;13384;24.794;110.498;2022-09-28T19:22:49;25.45;;;19.40;;
25467;SDS011;13384;24.794;110.498;2022-09-28T19:25:20;22.77;;;19.10;;
25467;SDS011;13384;24.794;110.498;2022-09-28T19:27:51;26.10;;;19.00;;
25467;SDS011;13384;24.794;110.498;2022-09-28T19:30:22;25.75;;;19.58;;
25467;SDS011;13384;24.794;110.498;2022-09-28T19:32:53;25.15;;;18.75;;
25467;SDS011;13384;24.794;110.498;2022-09-28T19:35:52;28.80;;;21.25;;
25467;SDS011;13384;24.794;110.498;2022-09-28T19:38:27;22.60;;;18.23;;
25467;SDS011;13384;24.794;110.498;2022-09-28T19:41:00;25.67;;;19.40;;
25467;SDS011;13384;24.794;110.498;2022-09-28T19:43:36;23.98;;;19.00;;
25467;SDS011;13384;24.794;110.498;2022-09-28T19:46:11;24.90;;;18.70;;
25467;SDS011;13384;24.794;110.498;2022-09-28T19:48:43;22.77;;;18.13;;
25467;SDS011;13384;24.794;110.498;2022-09-28T19:51:16;24.77;;;18.60;;
25467;SDS011;13384;24.794;110.498;2022-09-28T19:53:48;24.92;;;19.25;;
25467;SDS011;13384;24.794;110.498;2022-09-28T19:56:39;22.48;;;19.20;;
25467;SDS011;13384;24.794;110.498;2022-09-28T19:59:11;24.52;;;18.77;;
25467;SDS011;13384;24.794;110.498;2022-09-28T20:01:43;28.92;;;20.38;;
25467;SDS011;13384;24.794;110.498;2022-09-28T20:04:14;25.13;;;18.83;;
25467;SDS011;13384;24.794;110.498;2022-09-28T20:06:46;22.60;;;18.17;;
25467;SDS011;13384;24.794;110.498;2022-09-28T20:09:18;28.17;;;20.60;;
25467;SDS011;13384;24.794;110.498;2022-09-28T20:11:49;24.95;;;18.63;;
25467;SDS011;13384;24.794;110.498;2022-09-28T20:14:21;22.33;;;18.13;;
25467;SDS011;13384;24.794;110.498;2022-09-28T20:16:57;25.75;;;20.65;;
25467;SDS011;13384;24.794;110.498;2022-09-28T20:19:28;23.33;;;19.05;;
25467;SDS011;13384;24.794;110.498;2022-09-28T20:21:59;23.15;;;17.75;;
25467;SDS011;13384;24.794;110.498;2022-09-28T20:24:31;23.67;;;18.95;;
25467;SDS011;13384;24.794;110.498;2022-09-28T20:27:02;23.73;;;18.42;;
25467;SDS011;13384;24.794;110.498;2022-09-28T20:29:33;23.23;;;17.85;;
25467;SDS011;13384;24.794;110.498;2022-09-28T20:32:04;21.50;;;17.65;;
25467;SDS011;13384;24.794;110.498;2022-09-28T20:34:35;22.35;;;17.80;;
25467;SDS011;13384;24.794;110.498;2022-09-28T20:37:06;23.13;;;18.42;;
25467;SDS011;13384;24.794;110.498;2022-09-28T20:39:37;21.77;;;17.50;;
25467;SDS011;13384;24.794;110.498;2022-09-28T20:42:12;23.70;;;18.20;;
25467;SDS011;13384;24.794;110.498;2022-09-28T20:44:43;25.98;;;18.33;;
25467;SDS011;13384;24.794;110.498;2022-09-28T20:47:14;21.65;;;18.02;;
25467;SDS011;13384;24.794;110.498;2022-09-28T20:49:46;24.02;;;17.77;;
25467;SDS011;13384;24.794;110.498;2022-09-28T20:52:37;24.13;;;17.70;;
25467;SDS011;13384;24.794;110.498;2022-09-28T20:55:08;22.88;;;17.92;;
25467;SDS011;13384;24.794;110.498;2022-09-28T20:57:40;19.48;;;17.33;;
25467;SDS011;13384;24.794;110.498;2022-09-28T21:00:12;21.88;;;17.58;;
25467;SDS011;13384;24.794;110.498;2022-09-28T21:02:43;24.25;;;17.88;;
25467;SDS011;13384;24.794;110.498;2022-09-28T21:05:19;21.15;;;18.00;;
25467;SDS011;13384;24.794;110.498;2022-09-28T21:07:50;22.33;;;17.98;;
25467;SDS011;13384;24.794;110.498;2022-09-28T21:10:21;24.38;;;17.90;;
25467;SDS011;13384;24.794;110.498;2022-09-28T21:12:52;23.92;;;17.23;;
25467;SDS011;13384;24.794;110.498;2022-09-28T21:15:23;21.63;;;16.55;;
25467;SDS011;13384;24.794;110.498;2022-09-28T21:17:55;23.13;;;17.60;;
25467;SDS011;13384;24.794;110.498;2022-09-28T21:20:46;22.20;;;17.83;;
25467;SDS011;13384;24.794;110.498;2022-09-28T21:23:19;23.13;;;18.27;;
25467;SDS011;13384;24.794;110.498;2022-09-28T21:26:00;20.58;;;17.35;;